Time;durP1;ratioP1;P1;durP2;ratioP2;P2;SDS_P1;SDS_P2;PMS_P1;PMS_P2;Temp;Humidity;BMP_temperature;BMP_pressure;BME280_temperature;BME280_humidity;BME280_pressure;Samples;Min_cycle;Max_cycle;Signal;HPM_P1;HPM_P2
2022/07/21 00:02:22;;;;;;;;;;;27.20;35.10;;;;;;5031910;28;19963;-62
2022/07/21 00:04:48;;;;;;;;;;;27.10;35.50;;;;;;5032161;28;19917;-62
2022/07/21 00:07:13;;;;;;;;;;;26.80;35.40;;;;;;5032328;28;20253;-62
2022/07/21 00:09:39;;;;;;;;;;;26.80;35.90;;;;;;5031939;28;19913;-62
2022/07/21 00:12:04;;;;;;;;;;;26.90;35.40;;;;;;5032001;28;19913;-62
2022/07/21 00:14:30;;;;;;;;;;;27.00;35.40;;;;;;5031637;28;19917;-62
2022/07/21 00:16:56;;;;;;;;;;;26.90;35.50;;;;;;5031670;28;20004;-63
2022/07/21 00:19:21;;;;;;;;;;;26.90;35.70;;;;;;5031920;28;19936;-62
2022/07/21 00:21:47;;;;;;;;;;;26.80;35.90;;;;;;5031907;28;20003;-62
2022/07/21 00:24:12;;;;;;;;;;;26.60;36.80;;;;;;5031848;28;19917;-62
2022/07/21 00:26:38;;;;;;;;;;;26.60;37.30;;;;;;5031615;28;19913;-63
2022/07/21 00:29:04;;;;;;;;;;;26.40;37.50;;;;;;5030639;28;19909;-62
2022/07/21 00:31:29;;;;;;;;;;;26.30;37.70;;;;;;5031587;28;19909;-69
2022/07/21 00:33:55;;;;;;;;;;;26.20;38.00;;;;;;5031765;28;19921;-64
2022/07/21 00:36:21;;;;;;;;;;;26.40;37.60;;;;;;5031566;28;19996;-72
2022/07/21 00:38:46;;;;;;;;;;;26.60;36.80;;;;;;5031686;28;19956;-62
2022/07/21 00:41:12;;;;;;;;;;;26.70;35.90;;;;;;5031691;28;19913;-63
2022/07/21 00:43:38;;;;;;;;;;;26.70;36.00;;;;;;5031267;28;20391;-63
2022/07/21 00:46:03;;;;;;;;;;;26.60;35.50;;;;;;5031532;28;19913;-61
2022/07/21 00:48:29;;;;;;;;;;;26.60;36.30;;;;;;5031704;28;19913;-65
2022/07/21 00:50:54;;;;;;;;;;;26.60;36.70;;;;;;5031523;28;19909;-63
2022/07/21 00:53:20;;;;;;;;;;;26.70;36.70;;;;;;5031729;28;19909;-63
2022/07/21 00:55:46;;;;;;;;;;;26.60;36.70;;;;;;5031463;28;20380;-62
2022/07/21 00:58:12;;;;;;;;;;;26.50;37.00;;;;;;5033354;28;20008;-62
2022/07/21 01:00:38;;;;;;;;;;;26.40;37.30;;;;;;5034878;28;20270;-62
2022/07/21 01:03:03;;;;;;;;;;;26.30;37.50;;;;;;5034974;28;19940;-65
2022/07/21 01:05:29;;;;;;;;;;;26.20;36.40;;;;;;5034926;28;20054;-62
2022/07/21 01:07:55;;;;;;;;;;;26.60;35.00;;;;;;5034874;28;19913;-63
2022/07/21 01:10:22;;;;;;;;;;;26.80;34.70;;;;;;5035006;28;19909;-64
2022/07/21 01:12:48;;;;;;;;;;;26.80;35.10;;;;;;5034835;28;19909;-61
2022/07/21 01:15:15;;;;;;;;;;;26.80;34.60;;;;;;5034609;28;19918;-61
2022/07/21 01:17:41;;;;;;;;;;;26.90;35.20;;;;;;5034814;28;19953;-62
2022/07/21 01:20:08;;;;;;;;;;;26.90;35.00;;;;;;5034943;28;20272;-70
2022/07/21 01:22:34;;;;;;;;;;;26.90;35.30;;;;;;5034589;28;19913;-67
2022/07/21 01:25:00;;;;;;;;;;;26.90;35.00;;;;;;5034637;28;19910;-62
2022/07/21 01:27:26;;;;;;;;;;;26.90;35.20;;;;;;5034587;28;19916;-65
2022/07/21 01:29:51;;;;;;;;;;;26.90;35.50;;;;;;5034269;28;20011;-64
2022/07/21 01:32:17;;;;;;;;;;;26.90;35.20;;;;;;5034446;28;19920;-62
2022/07/21 01:34:42;;;;;;;;;;;27.00;35.00;;;;;;5034343;28;20407;-62
2022/07/21 01:37:08;;;;;;;;;;;27.00;35.10;;;;;;5034307;28;19909;-64
2022/07/21 01:42:18;;;;;;;;;;;27.10;35.60;;;;;;5034327;28;19916;-62
2022/07/21 01:44:43;;;;;;;;;;;27.10;35.00;;;;;;5033895;28;20355;-62
2022/07/21 01:47:09;;;;;;;;;;;27.00;35.10;;;;;;5034073;28;19917;-62
2022/07/21 01:49:34;;;;;;;;;;;27.00;35.30;;;;;;5034376;28;19917;-62
2022/07/21 01:52:00;;;;;;;;;;;27.00;35.50;;;;;;5034069;28;20361;-63
2022/07/21 01:54:25;;;;;;;;;;;26.80;36.20;;;;;;5033894;28;19928;-62
2022/07/21 01:56:51;;;;;;;;;;;26.70;36.40;;;;;;5033900;28;19953;-65
2022/07/21 01:59:17;;;;;;;;;;;26.60;37.20;;;;;;5033853;28;20281;-71
2022/07/21 02:01:42;;;;;;;;;;;26.50;36.60;;;;;;5034084;28;19913;-68
2022/07/21 02:04:08;;;;;;;;;;;26.40;37.40;;;;;;5033769;28;20027;-71
2022/07/21 02:06:34;;;;;;;;;;;26.30;37.30;;;;;;5033783;28;19909;-71
2022/07/21 02:09:00;;;;;;;;;;;26.30;37.80;;;;;;5033617;28;19913;-68
2022/07/21 02:11:25;;;;;;;;;;;26.20;38.20;;;;;;5033665;28;19909;-63
2022/07/21 02:13:51;;;;;;;;;;;26.10;38.30;;;;;;5033432;28;19925;-62
2022/07/21 02:16:16;;;;;;;;;;;26.10;38.60;;;;;;5033527;28;19916;-64
2022/07/21 02:18:43;;;;;;;;;;;26.10;38.20;;;;;;5033627;28;19920;-63
2022/07/21 02:21:09;;;;;;;;;;;26.40;36.70;;;;;;5033409;28;19971;-63
2022/07/21 02:23:34;;;;;;;;;;;26.60;36.10;;;;;;5033512;28;19991;-62
2022/07/21 02:26:00;;;;;;;;;;;26.80;35.10;;;;;;5033349;28;19917;-61
2022/07/21 02:28:26;;;;;;;;;;;27.00;34.90;;;;;;5033371;28;19913;-63
2022/07/21 02:30:52;;;;;;;;;;;27.10;34.40;;;;;;5033401;28;20001;-63
2022/07/21 02:33:18;;;;;;;;;;;27.20;34.60;;;;;;5033026;28;19999;-66
2022/07/21 02:35:43;;;;;;;;;;;27.30;34.60;;;;;;5032049;28;20288;-71
2022/07/21 02:38:10;;;;;;;;;;;27.40;34.40;;;;;;5033175;28;19913;-70
2022/07/21 02:40:35;;;;;;;;;;;27.40;34.30;;;;;;5033195;28;20380;-68
2022/07/21 02:43:01;;;;;;;;;;;27.50;34.00;;;;;;5032818;28;19972;-72
2022/07/21 02:45:27;;;;;;;;;;;27.60;34.10;;;;;;5033155;28;20350;-69
2022/07/21 02:47:55;;;;;;;;;;;27.60;34.20;;;;;;5033125;28;19917;-69
2022/07/21 02:50:22;;;;;;;;;;;27.70;34.30;;;;;;5032753;28;19909;-72
2022/07/21 02:52:48;;;;;;;;;;;27.70;34.30;;;;;;5032988;28;20296;-70
2022/07/21 02:55:14;;;;;;;;;;;27.70;34.30;;;;;;5032618;28;19924;-72
2022/07/21 02:57:40;;;;;;;;;;;27.70;34.50;;;;;;5032780;28;19909;-62
2022/07/21 03:00:06;;;;;;;;;;;27.80;34.40;;;;;;5032679;28;19916;-62
2022/07/21 03:02:32;;;;;;;;;;;27.80;34.30;;;;;;5033203;28;19909;-61
2022/07/21 03:04:57;;;;;;;;;;;27.80;34.30;;;;;;5032707;28;20360;-61
2022/07/21 03:07:23;;;;;;;;;;;27.90;34.40;;;;;;5033099;28;20405;-63
2022/07/21 03:09:49;;;;;;;;;;;27.90;34.30;;;;;;5032654;28;19917;-62
2022/07/21 03:12:14;;;;;;;;;;;27.90;34.30;;;;;;5032641;28;19920;-66
2022/07/21 03:14:40;;;;;;;;;;;27.90;34.30;;;;;;5032392;28;19917;-68
2022/07/21 03:17:05;;;;;;;;;;;27.90;34.40;;;;;;5032582;28;19909;-61
2022/07/21 03:19:31;;;;;;;;;;;27.90;34.50;;;;;;5032335;28;19971;-62
2022/07/21 03:21:56;;;;;;;;;;;27.90;34.40;;;;;;5032181;28;19913;-62
2022/07/21 03:24:22;;;;;;;;;;;27.80;34.50;;;;;;5032331;28;19909;-62
2022/07/21 03:26:47;;;;;;;;;;;27.70;34.90;;;;;;5032286;28;19921;-63
2022/07/21 03:29:13;;;;;;;;;;;27.70;35.10;;;;;;5032450;28;19913;-62
2022/07/21 03:31:39;;;;;;;;;;;27.70;35.30;;;;;;5032261;28;20308;-68
2022/07/21 03:34:04;;;;;;;;;;;27.60;35.50;;;;;;5032233;28;19921;-61
2022/07/21 03:36:30;;;;;;;;;;;27.50;35.50;;;;;;5032095;28;19959;-63
2022/07/21 03:38:55;;;;;;;;;;;27.40;35.70;;;;;;5032330;28;19912;-61
2022/07/21 03:41:21;;;;;;;;;;;27.50;36.10;;;;;;5032387;28;19916;-63
2022/07/21 03:43:46;;;;;;;;;;;27.30;36.20;;;;;;5032039;28;20318;-62
2022/07/21 03:46:12;;;;;;;;;;;27.20;36.50;;;;;;5032066;28;19995;-63
2022/07/21 03:48:38;;;;;;;;;;;27.10;37.50;;;;;;5032416;28;19909;-62
2022/07/21 03:51:04;;;;;;;;;;;27.00;37.60;;;;;;5032217;28;20353;-62
2022/07/21 03:53:30;;;;;;;;;;;26.90;37.50;;;;;;5031949;28;19916;-64
2022/07/21 03:55:56;;;;;;;;;;;26.80;38.10;;;;;;5031958;28;20375;-64
2022/07/21 03:58:21;;;;;;;;;;;26.80;38.40;;;;;;5032005;28;20281;-63
2022/07/21 04:00:47;;;;;;;;;;;26.70;38.70;;;;;;5032051;28;19909;-64
2022/07/21 04:03:13;;;;;;;;;;;26.60;38.60;;;;;;5031811;28;19924;-63
2022/07/21 04:05:39;;;;;;;;;;;26.60;39.20;;;;;;5031985;28;19959;-64
2022/07/21 04:08:05;;;;;;;;;;;26.60;39.20;;;;;;5031923;28;19920;-64
2022/07/21 04:10:32;;;;;;;;;;;26.50;39.60;;;;;;5032401;28;20281;-64
2022/07/21 04:12:58;;;;;;;;;;;26.50;39.50;;;;;;5031932;28;20251;-64
2022/07/21 04:15:24;;;;;;;;;;;26.60;39.40;;;;;;5031750;28;19924;-65
2022/07/21 04:17:50;;;;;;;;;;;26.60;39.60;;;;;;5031879;28;19909;-64
2022/07/21 04:20:15;;;;;;;;;;;26.50;39.70;;;;;;5031800;28;19917;-66
2022/07/21 04:22:42;;;;;;;;;;;26.50;39.90;;;;;;5031605;28;19913;-63
2022/07/21 04:25:07;;;;;;;;;;;26.30;40.80;;;;;;5031709;28;19909;-63
2022/07/21 04:27:34;;;;;;;;;;;26.20;41.00;;;;;;5031806;28;20004;-63
2022/07/21 04:29:59;;;;;;;;;;;26.10;41.50;;;;;;5031566;28;20254;-69
2022/07/21 04:32:25;;;;;;;;;;;26.00;42.40;;;;;;5032558;28;19915;-64
2022/07/21 04:34:51;;;;;;;;;;;25.90;42.60;;;;;;5035292;28;19928;-64
2022/07/21 04:37:16;;;;;;;;;;;25.90;42.30;;;;;;5035476;28;20015;-63
2022/07/21 04:39:42;;;;;;;;;;;25.80;42.60;;;;;;5035263;28;19916;-64
2022/07/21 04:42:07;;;;;;;;;;;25.90;42.70;;;;;;5035432;28;20392;-67
2022/07/21 04:44:33;;;;;;;;;;;26.10;42.30;;;;;;5035143;28;19932;-63
2022/07/21 04:46:59;;;;;;;;;;;26.40;42.00;;;;;;5035315;28;20428;-71
2022/07/21 04:49:24;;;;;;;;;;;26.40;41.60;;;;;;5035360;28;19976;-63
2022/07/21 04:51:50;;;;;;;;;;;26.20;41.50;;;;;;5035288;28;20323;-63
2022/07/21 04:54:15;;;;;;;;;;;26.20;42.30;;;;;;5034953;28;19917;-63
2022/07/21 04:56:41;;;;;;;;;;;26.10;42.40;;;;;;5035025;28;19975;-64
2022/07/21 04:59:07;;;;;;;;;;;26.10;41.20;;;;;;5034945;28;19949;-62
2022/07/21 05:01:33;;;;;;;;;;;26.00;43.20;;;;;;5034899;28;20357;-62
2022/07/21 05:03:58;;;;;;;;;;;25.80;43.70;;;;;;5034801;28;19917;-63
2022/07/21 05:06:25;;;;;;;;;;;25.80;43.60;;;;;;5034814;28;19909;-62
2022/07/21 05:08:50;;;;;;;;;;;25.70;43.70;;;;;;5034931;28;20287;-62
2022/07/21 05:11:16;;;;;;;;;;;25.80;44.40;;;;;;5034684;28;20368;-62
2022/07/21 05:13:42;;;;;;;;;;;25.80;44.30;;;;;;5034863;28;19920;-62
2022/07/21 05:16:07;;;;;;;;;;;25.80;43.90;;;;;;5034971;28;19913;-62
2022/07/21 05:18:33;;;;;;;;;;;26.00;43.30;;;;;;5034679;28;19913;-62
2022/07/21 05:20:58;;;;;;;;;;;26.00;43.80;;;;;;5033883;28;19921;-62
2022/07/21 05:23:24;;;;;;;;;;;26.20;42.90;;;;;;5034515;28;19909;-62
2022/07/21 05:25:49;;;;;;;;;;;26.20;42.70;;;;;;5034437;28;19916;-69
2022/07/21 05:28:15;;;;;;;;;;;26.10;41.50;;;;;;5034590;28;20019;-61
2022/07/21 05:30:40;;;;;;;;;;;26.20;43.10;;;;;;5034639;28;20277;-63
2022/07/21 05:33:06;;;;;;;;;;;26.10;44.10;;;;;;5034211;28;20281;-66
2022/07/21 05:35:32;;;;;;;;;;;26.00;44.90;;;;;;5034332;28;20404;-64
2022/07/21 05:37:57;;;;;;;;;;;26.10;44.90;;;;;;5034522;28;19955;-64
2022/07/21 05:40:23;;;;;;;;;;;26.10;45.00;;;;;;5034630;28;19921;-67
2022/07/21 05:42:48;;;;;;;;;;;26.00;43.20;;;;;;5033808;28;19928;-63
2022/07/21 05:45:14;;;;;;;;;;;26.10;42.80;;;;;;5034106;28;19910;-64
2022/07/21 05:47:40;;;;;;;;;;;26.30;43.50;;;;;;5034155;28;19913;-63
2022/07/21 05:50:06;;;;;;;;;;;26.50;42.10;;;;;;5034204;28;19909;-64
2022/07/21 05:52:31;;;;;;;;;;;26.90;40.80;;;;;;5033849;28;19917;-64
2022/07/21 05:54:57;;;;;;;;;;;27.30;41.10;;;;;;5033872;28;19924;-61
2022/07/21 05:57:22;;;;;;;;;;;27.80;39.60;;;;;;5033818;28;20007;-64
2022/07/21 05:59:48;;;;;;;;;;;28.20;40.10;;;;;;5034019;28;19935;-65
2022/07/21 06:02:13;;;;;;;;;;;28.60;39.20;;;;;;5033752;28;19958;-61
2022/07/21 06:04:39;;;;;;;;;;;29.00;38.30;;;;;;5033911;28;19959;-62
2022/07/21 06:07:05;;;;;;;;;;;29.40;37.40;;;;;;5033613;28;20372;-63
2022/07/21 06:09:30;;;;;;;;;;;29.70;36.80;;;;;;5033872;28;19963;-65
2022/07/21 06:11:56;;;;;;;;;;;30.00;36.10;;;;;;5033815;28;19917;-65
2022/07/21 06:14:22;;;;;;;;;;;30.20;35.10;;;;;;5033581;28;19921;-64
2022/07/21 06:16:47;;;;;;;;;;;30.40;34.30;;;;;;5033847;28;20012;-67
2022/07/21 06:19:13;;;;;;;;;;;30.60;34.30;;;;;;5033478;28;19918;-66
2022/07/21 06:21:40;;;;;;;;;;;30.70;33.80;;;;;;5033548;28;20016;-67
2022/07/21 06:24:06;;;;;;;;;;;30.80;33.80;;;;;;5033189;28;20353;-64
2022/07/21 06:26:32;;;;;;;;;;;30.90;33.90;;;;;;5033387;28;19916;-64
2022/07/21 06:28:57;;;;;;;;;;;31.00;33.60;;;;;;5033319;28;19909;-64
2022/07/21 06:31:23;;;;;;;;;;;31.10;33.30;;;;;;5033408;28;19924;-63
2022/07/21 06:33:48;;;;;;;;;;;31.10;33.30;;;;;;5033081;28;19909;-63
2022/07/21 06:36:14;;;;;;;;;;;31.10;32.70;;;;;;5032900;28;19955;-62
2022/07/21 06:38:39;;;;;;;;;;;31.10;33.80;;;;;;5033223;28;19948;-64
2022/07/21 06:41:06;;;;;;;;;;;31.00;34.90;;;;;;5032044;28;19913;-71
2022/07/21 06:43:32;;;;;;;;;;;30.90;35.50;;;;;;5031794;28;19933;-64
2022/07/21 06:45:58;;;;;;;;;;;30.90;36.00;;;;;;5031861;28;19913;-64
2022/07/21 06:48:24;;;;;;;;;;;31.10;35.80;;;;;;5032267;28;19928;-64
2022/07/21 06:50:50;;;;;;;;;;;31.20;35.70;;;;;;5032936;28;20269;-64
2022/07/21 06:53:16;;;;;;;;;;;31.40;35.60;;;;;;5032973;28;19920;-73
2022/07/21 06:55:41;;;;;;;;;;;31.60;35.20;;;;;;5032219;28;20015;-74
2022/07/21 06:58:15;;;;;;;;;;;31.80;34.70;;;;;;5033041;28;19910;-74
2022/07/21 07:00:41;;;;;;;;;;;32.10;34.00;;;;;;5031506;28;19920;-71
2022/07/21 07:03:07;;;;;;;;;;;32.30;33.50;;;;;;5032524;28;19917;-62
2022/07/21 07:05:33;;;;;;;;;;;32.40;33.10;;;;;;5032540;28;20353;-77
2022/07/21 07:07:58;;;;;;;;;;;32.50;32.90;;;;;;5032591;28;19909;-76
2022/07/21 07:10:24;;;;;;;;;;;32.60;32.60;;;;;;5032634;28;19920;-74
2022/07/21 07:12:50;;;;;;;;;;;32.70;31.70;;;;;;5032459;28;19913;-74
2022/07/21 07:15:15;;;;;;;;;;;32.70;31.20;;;;;;5032446;28;20490;-78
2022/07/21 07:17:41;;;;;;;;;;;32.80;31.10;;;;;;5032417;28;20438;-71
2022/07/21 07:20:07;;;;;;;;;;;32.80;31.00;;;;;;5031527;28;20293;-64
2022/07/21 07:22:33;;;;;;;;;;;32.90;30.90;;;;;;5032114;28;19909;-66
2022/07/21 07:24:58;;;;;;;;;;;33.00;31.20;;;;;;5032266;28;19916;-63
2022/07/21 07:27:24;;;;;;;;;;;33.00;30.90;;;;;;5032383;28;19913;-65
2022/07/21 07:29:49;;;;;;;;;;;33.00;31.10;;;;;;5032268;28;19912;-68
2022/07/21 07:32:15;;;;;;;;;;;33.10;30.80;;;;;;5031868;28;20368;-65
2022/07/21 07:34:40;;;;;;;;;;;33.10;30.60;;;;;;5031754;28;19921;-63
2022/07/21 07:37:06;;;;;;;;;;;33.20;31.30;;;;;;5031629;28;20262;-60
2022/07/21 07:39:32;;;;;;;;;;;33.30;31.20;;;;;;5031241;28;19909;-62
2022/07/21 07:41:57;;;;;;;;;;;33.20;30.40;;;;;;5031148;28;19913;-62
2022/07/21 07:44:23;;;;;;;;;;;33.00;31.00;;;;;;5030872;28;19986;-63
2022/07/21 07:46:48;;;;;;;;;;;32.90;30.80;;;;;;5031402;28;19913;-63
2022/07/21 07:49:14;;;;;;;;;;;32.80;31.40;;;;;;5034163;28;19917;-62
2022/07/21 07:51:40;;;;;;;;;;;32.90;31.70;;;;;;5030254;28;20308;-63
2022/07/21 07:54:05;;;;;;;;;;;33.00;32.30;;;;;;5029802;28;19984;-63
2022/07/21 07:56:31;;;;;;;;;;;33.20;32.30;;;;;;5030086;28;19923;-64
2022/07/21 07:58:57;;;;;;;;;;;33.30;32.50;;;;;;5029974;28;20357;-65
2022/07/21 08:01:22;;;;;;;;;;;33.50;32.60;;;;;;5031272;28;20004;-62
2022/07/21 08:03:48;;;;;;;;;;;33.80;31.80;;;;;;5031444;28;19922;-60
2022/07/21 08:06:13;;;;;;;;;;;34.00;31.30;;;;;;5031940;28;20266;-61
2022/07/21 08:08:39;;;;;;;;;;;34.00;31.70;;;;;;5035831;28;20352;-62
2022/07/21 08:11:05;;;;;;;;;;;34.10;31.20;;;;;;5035791;28;19985;-61
2022/07/21 08:13:30;;;;;;;;;;;34.00;30.80;;;;;;5035714;28;19932;-64
2022/07/21 08:15:56;;;;;;;;;;;34.00;31.70;;;;;;5035457;28;20047;-62
2022/07/21 08:18:21;;;;;;;;;;;33.90;32.00;;;;;;5035652;28;19920;-61
2022/07/21 08:20:47;;;;;;;;;;;33.70;32.30;;;;;;5035665;28;19909;-59
2022/07/21 08:23:13;;;;;;;;;;;33.40;32.10;;;;;;5034975;28;19913;-58
2022/07/21 08:25:39;;;;;;;;;;;33.40;33.20;;;;;;5034208;28;19924;-59
2022/07/21 08:28:05;;;;;;;;;;;33.30;32.30;;;;;;5034558;28;19914;-59
2022/07/21 08:30:31;;;;;;;;;;;33.20;32.40;;;;;;5034677;28;19909;-59
2022/07/21 08:32:57;;;;;;;;;;;33.10;32.80;;;;;;5034451;28;19929;-59
2022/07/21 08:35:23;;;;;;;;;;;33.20;32.50;;;;;;5034523;28;20369;-60
2022/07/21 08:38:02;;;;;;;;;;;33.30;32.40;;;;;;5035713;28;20007;-59
2022/07/21 08:40:28;;;;;;;;;;;33.30;30.80;;;;;;5035444;28;20031;-61
2022/07/21 08:42:54;;;;;;;;;;;33.00;30.40;;;;;;5035096;28;20071;-60
2022/07/21 08:45:21;;;;;;;;;;;33.00;31.20;;;;;;5035038;28;20452;-59
2022/07/21 08:47:50;;;;;;;;;;;32.90;30.30;;;;;;5035312;28;19954;-59
2022/07/21 08:50:15;;;;;;;;;;;33.00;30.00;;;;;;5033819;28;20015;-59
2022/07/21 08:52:41;;;;;;;;;;;32.80;29.30;;;;;;5035271;28;19959;-62
2022/07/21 08:55:07;;;;;;;;;;;32.70;29.60;;;;;;5034952;28;20258;-60
2022/07/21 08:57:35;;;;;;;;;;;32.70;29.70;;;;;;5035134;28;20344;-59
2022/07/21 09:00:00;;;;;;;;;;;32.60;29.70;;;;;;5035090;28;19932;-59
2022/07/21 09:02:27;;;;;;;;;;;32.70;29.90;;;;;;5034794;28;19910;-64
2022/07/21 09:04:53;;;;;;;;;;;32.70;30.00;;;;;;5035262;28;19913;-59
2022/07/21 09:07:19;;;;;;;;;;;32.80;30.00;;;;;;5034822;28;19919;-59
2022/07/21 09:09:54;;;;;;;;;;;32.90;29.70;;;;;;5034860;28;19917;-60
2022/07/21 09:12:19;;;;;;;;;;;33.00;29.40;;;;;;5034389;28;20456;-60
2022/07/21 09:14:45;;;;;;;;;;;33.00;29.10;;;;;;5034791;28;20011;-64
2022/07/21 09:17:10;;;;;;;;;;;32.90;29.30;;;;;;5033467;28;19949;-61
2022/07/21 09:19:44;;;;;;;;;;;32.90;29.50;;;;;;5032456;28;20341;-63
2022/07/21 09:22:16;;;;;;;;;;;32.80;29.60;;;;;;5034014;28;20304;-62
2022/07/21 09:24:48;;;;;;;;;;;32.80;29.90;;;;;;5033467;28;19983;-60
2022/07/21 09:27:14;;;;;;;;;;;32.80;29.70;;;;;;5033689;28;20245;-61
2022/07/21 09:29:40;;;;;;;;;;;32.80;29.60;;;;;;5032188;28;20352;-61
2022/07/21 09:32:15;;;;;;;;;;;32.90;29.40;;;;;;5032243;28;19960;-61
2022/07/21 09:34:40;;;;;;;;;;;32.90;29.50;;;;;;5033280;28;19917;-61
2022/07/21 09:37:07;;;;;;;;;;;33.00;29.70;;;;;;5033153;28;19913;-60
2022/07/21 09:39:46;;;;;;;;;;;33.10;29.70;;;;;;5033267;28;19913;-60
2022/07/21 09:42:13;;;;;;;;;;;33.10;29.50;;;;;;5033392;28;19937;-61
2022/07/21 09:44:41;;;;;;;;;;;33.10;29.60;;;;;;5034182;28;19951;-63
2022/07/21 09:47:14;;;;;;;;;;;33.20;30.00;;;;;;5034160;28;19910;-62
2022/07/21 09:49:40;;;;;;;;;;;33.10;30.80;;;;;;5034369;28;19919;-59
2022/07/21 09:52:20;;;;;;;;;;;33.10;30.50;;;;;;5033654;28;20024;-62
2022/07/21 09:54:46;;;;;;;;;;;33.00;30.40;;;;;;5033789;28;19940;-60
2022/07/21 09:57:12;;;;;;;;;;;32.90;30.40;;;;;;5033823;28;20370;-60
2022/07/21 09:59:38;;;;;;;;;;;32.80;30.30;;;;;;5032672;28;19914;-60
2022/07/21 10:02:14;;;;;;;;;;;32.80;29.70;;;;;;5033777;28;19918;-63
2022/07/21 10:04:41;;;;;;;;;;;32.80;29.20;;;;;;5033641;28;19913;-63
2022/07/21 10:07:06;;;;;;;;;;;32.80;28.70;;;;;;5033585;28;19909;-64
2022/07/21 10:09:32;;;;;;;;;;;32.80;28.50;;;;;;5033834;28;19970;-59
2022/07/21 10:11:57;;;;;;;;;;;32.90;28.80;;;;;;5031133;28;19909;-61
2022/07/21 10:14:23;;;;;;;;;;;32.90;28.30;;;;;;5032720;28;19975;-59
2022/07/21 10:16:49;;;;;;;;;;;32.80;28.20;;;;;;5032924;28;19913;-59
2022/07/21 10:19:19;;;;;;;;;;;32.70;28.20;;;;;;5020282;28;20419;-59
2022/07/21 10:22:03;;;;;;;;;;;32.70;28.50;;;;;;5028636;28;19955;-62
2022/07/21 10:24:30;;;;;;;;;;;32.70;28.30;;;;;;5032155;28;20285;-59
2022/07/21 10:27:08;;;;;;;;;;;32.80;28.40;;;;;;5033544;28;20281;-59
2022/07/21 10:29:53;;;;;;;;;;;32.70;28.60;;;;;;5032435;28;20396;-61
2022/07/21 10:32:22;;;;;;;;;;;32.70;28.20;;;;;;5032072;28;19909;-60
2022/07/21 10:34:48;;;;;;;;;;;32.70;28.20;;;;;;5031986;28;20379;-60
2022/07/21 10:37:32;;;;;;;;;;;32.70;28.60;;;;;;5031769;28;19913;-62
2022/07/21 10:39:58;;;;;;;;;;;32.70;28.60;;;;;;5031923;28;19970;-61
2022/07/21 10:42:24;;;;;;;;;;;32.60;28.90;;;;;;5032107;28;19913;-59
2022/07/21 10:44:49;;;;;;;;;;;32.60;29.10;;;;;;5031330;28;19936;-60
2022/07/21 10:47:23;;;;;;;;;;;32.60;29.20;;;;;;5031758;28;20391;-63
2022/07/21 10:49:50;;;;;;;;;;;32.60;28.90;;;;;;5031543;28;19960;-63
2022/07/21 10:52:34;;;;;;;;;;;32.60;28.90;;;;;;5028987;28;19912;-63
2022/07/21 10:55:17;;;;;;;;;;;32.70;28.90;;;;;;5031257;28;19925;-65
2022/07/21 10:57:47;;;;;;;;;;;32.80;28.90;;;;;;5029253;28;19966;-65
2022/07/21 11:00:15;;;;;;;;;;;32.80;29.00;;;;;;5031258;28;19916;-62
2022/07/21 11:02:41;;;;;;;;;;;32.80;29.40;;;;;;5028861;28;19917;-64
2022/07/21 11:05:07;;;;;;;;;;;32.70;30.20;;;;;;5031035;28;20324;-62
2022/07/21 11:07:51;;;;;;;;;;;32.70;30.00;;;;;;5031049;28;19917;-63
2022/07/21 11:10:18;;;;;;;;;;;32.60;31.10;;;;;;5038197;28;20277;-66
2022/07/21 11:12:55;;;;;;;;;;;32.50;30.50;;;;;;5035481;28;19917;-67
2022/07/21 11:15:50;;;;;;;;;;;32.50;30.80;;;;;;5030717;28;19940;-65
2022/07/21 11:18:19;;;;;;;;;;;32.50;31.20;;;;;;5020686;28;19920;-59
2022/07/21 11:21:00;;;;;;;;;;;32.40;31.10;;;;;;5030892;28;19917;-67
2022/07/21 11:23:55;;;;;;;;;;;32.40;31.10;;;;;;5031106;28;19909;-62
2022/07/21 11:26:23;;;;;;;;;;;32.50;31.10;;;;;;5021145;28;19947;-63
2022/07/21 11:29:02;;;;;;;;;;;32.50;31.70;;;;;;5031301;28;19909;-61
2022/07/21 11:31:28;;;;;;;;;;;32.40;31.40;;;;;;5031417;28;19909;-62
2022/07/21 11:33:53;;;;;;;;;;;32.50;31.70;;;;;;5030823;28;19993;-63
2022/07/21 11:36:25;;;;;;;;;;;32.50;31.90;;;;;;5031364;28;19913;-62
2022/07/21 11:39:05;;;;;;;;;;;32.60;32.20;;;;;;5031236;28;19909;-64
2022/07/21 11:41:31;;;;;;;;;;;32.60;30.00;;;;;;5029412;28;19912;-61
2022/07/21 11:43:56;;;;;;;;;;;32.60;29.60;;;;;;5041709;28;19975;-62
2022/07/21 11:46:22;;;;;;;;;;;32.60;29.20;;;;;;5032238;28;20004;-60
2022/07/21 11:48:47;;;;;;;;;;;32.60;30.00;;;;;;5032589;28;19936;-63
2022/07/21 11:51:13;;;;;;;;;;;32.70;29.20;;;;;;5031816;28;19920;-69
2022/07/21 11:53:44;;;;;;;;;;;32.70;28.20;;;;;;5031887;28;19909;-60
2022/07/21 11:56:15;;;;;;;;;;;32.70;28.50;;;;;;5019263;28;19917;-64
2022/07/21 11:58:42;;;;;;;;;;;32.80;29.40;;;;;;5032116;28;19913;-61
2022/07/21 12:01:08;;;;;;;;;;;32.80;28.40;;;;;;5032386;28;19917;-64
2022/07/21 12:03:33;;;;;;;;;;;32.80;28.00;;;;;;5030847;28;19914;-60
2022/07/21 12:06:00;;;;;;;;;;;32.80;28.60;;;;;;5030339;28;19932;-59
2022/07/21 12:08:26;;;;;;;;;;;32.80;28.60;;;;;;5030546;28;19916;-62
2022/07/21 12:11:03;;;;;;;;;;;32.80;27.80;;;;;;5030695;28;19909;-67
2022/07/21 12:13:28;;;;;;;;;;;32.80;28.60;;;;;;5028766;28;20027;-65
2022/07/21 12:15:55;;;;;;;;;;;32.80;29.30;;;;;;5030390;28;20420;-61
2022/07/21 12:18:23;;;;;;;;;;;32.90;30.60;;;;;;5030627;28;19940;-64
2022/07/21 12:20:49;;;;;;;;;;;32.80;28.60;;;;;;5030530;28;19917;-64
2022/07/21 12:23:18;;;;;;;;;;;32.80;28.60;;;;;;5030411;28;20004;-62
2022/07/21 12:25:44;;;;;;;;;;;32.80;30.50;;;;;;5030444;28;19917;-65
2022/07/21 12:28:09;;;;;;;;;;;32.80;32.10;;;;;;5030338;28;19992;-68
2022/07/21 12:30:35;;;;;;;;;;;32.90;32.90;;;;;;5030822;28;20284;-65
2022/07/21 12:33:08;;;;;;;;;;;32.90;31.40;;;;;;5030952;28;19913;-61
2022/07/21 12:35:34;;;;;;;;;;;32.90;31.40;;;;;;5033139;28;19925;-64
2022/07/21 12:38:05;;;;;;;;;;;33.00;31.00;;;;;;5030177;28;20383;-62
2022/07/21 12:40:31;;;;;;;;;;;33.00;30.30;;;;;;5028407;28;19920;-65
2022/07/21 12:43:04;;;;;;;;;;;33.00;31.10;;;;;;5029785;28;19924;-62
2022/07/21 12:45:29;;;;;;;;;;;33.00;31.90;;;;;;5028117;28;19913;-62
2022/07/21 12:48:05;;;;;;;;;;;33.00;31.60;;;;;;5030004;28;19920;-61
2022/07/21 12:50:31;;;;;;;;;;;33.00;31.40;;;;;;5028131;28;20015;-61
2022/07/21 12:52:56;;;;;;;;;;;32.80;31.80;;;;;;5031261;28;20005;-62
2022/07/21 12:55:22;;;;;;;;;;;32.80;30.10;;;;;;5033578;28;20365;-63
2022/07/21 12:57:47;;;;;;;;;;;32.80;30.20;;;;;;5034893;28;19917;-62
2022/07/21 13:00:13;;;;;;;;;;;32.70;31.10;;;;;;5034341;28;19964;-62
2022/07/21 13:02:48;;;;;;;;;;;32.60;31.60;;;;;;5034805;28;19913;-62
2022/07/21 13:05:14;;;;;;;;;;;32.50;31.20;;;;;;5034561;28;19913;-62
2022/07/21 13:07:39;;;;;;;;;;;32.60;30.10;;;;;;5034987;28;20343;-63
2022/07/21 13:10:05;;;;;;;;;;;32.60;30.70;;;;;;5034733;28;19913;-63
2022/07/21 13:12:31;;;;;;;;;;;32.70;29.80;;;;;;5034460;28;19916;-62
2022/07/21 13:14:56;;;;;;;;;;;32.70;29.10;;;;;;5033294;28;19925;-60
2022/07/21 13:17:22;;;;;;;;;;;32.70;28.60;;;;;;5033743;28;19913;-60
2022/07/21 13:19:47;;;;;;;;;;;32.90;28.80;;;;;;5033694;28;19910;-60
2022/07/21 13:22:13;;;;;;;;;;;33.00;28.50;;;;;;5033548;28;19913;-59
2022/07/21 13:24:38;;;;;;;;;;;32.90;28.50;;;;;;5033302;28;19992;-60
2022/07/21 13:27:04;;;;;;;;;;;32.90;28.30;;;;;;5034497;28;20004;-60
2022/07/21 13:29:30;;;;;;;;;;;33.00;26.70;;;;;;5034528;28;19917;-59
2022/07/21 13:31:55;;;;;;;;;;;33.10;27.60;;;;;;5034399;28;19932;-60
2022/07/21 13:34:21;;;;;;;;;;;33.20;27.60;;;;;;5034285;28;19935;-62
2022/07/21 13:36:47;;;;;;;;;;;33.20;26.70;;;;;;5034769;28;19917;-59
2022/07/21 13:39:13;;;;;;;;;;;33.20;26.80;;;;;;5034073;28;20286;-60
2022/07/21 13:41:39;;;;;;;;;;;33.10;26.70;;;;;;5033585;28;19913;-60
2022/07/21 13:44:05;;;;;;;;;;;33.00;26.60;;;;;;5032732;28;20424;-58
2022/07/21 13:46:30;;;;;;;;;;;32.90;27.60;;;;;;5033238;28;19909;-58
2022/07/21 13:48:56;;;;;;;;;;;32.90;27.10;;;;;;5033275;28;19963;-61
2022/07/21 13:51:21;;;;;;;;;;;32.80;27.70;;;;;;5033078;28;19948;-57
2022/07/21 13:53:48;;;;;;;;;;;32.90;28.10;;;;;;5032967;28;19913;-62
2022/07/21 13:56:14;;;;;;;;;;;33.00;28.40;;;;;;5032995;28;19932;-63
2022/07/21 13:58:41;;;;;;;;;;;32.90;28.50;;;;;;5032956;28;20393;-61
2022/07/21 14:01:08;;;;;;;;;;;32.80;29.40;;;;;;5032938;28;19920;-59
2022/07/21 14:03:34;;;;;;;;;;;32.70;32.30;;;;;;5032992;28;19917;-60
2022/07/21 14:06:00;;;;;;;;;;;32.80;32.20;;;;;;5032917;28;19916;-61
2022/07/21 14:08:26;;;;;;;;;;;32.70;35.30;;;;;;5033650;28;19917;-60
2022/07/21 14:10:52;;;;;;;;;;;32.50;39.00;;;;;;5033870;28;20011;-60
2022/07/21 14:13:17;;;;;;;;;;;32.50;40.10;;;;;;5033261;28;19913;-61
2022/07/21 14:15:43;;;;;;;;;;;32.50;41.30;;;;;;5032358;28;20365;-62
2022/07/21 14:18:08;;;;;;;;;;;32.30;39.90;;;;;;5033523;28;19913;-60